createdAt,value
2024-02-14T00:01:38.324Z,44.83
2024-02-14T00:20:23.285Z,41.50
2024-02-14T00:22:58.130Z,36.58
2024-02-14T00:25:28.558Z,48.17
2024-02-14T00:28:01.992Z,38.40
2024-02-14T00:30:32.650Z,39.20
2024-02-14T00:33:13.907Z,48.05
2024-02-14T00:35:45.818Z,51.00
2024-02-14T00:38:15.972Z,38.17
2024-02-14T00:40:46.606Z,53.15
2024-02-14T00:43:16.596Z,41.78
2024-02-14T00:45:46.919Z,48.20
2024-02-14T00:48:17.234Z,41.17
2024-02-14T00:50:49.192Z,48.40
2024-02-14T00:53:20.154Z,48.15
2024-02-14T00:55:50.682Z,50.97
2024-02-14T00:58:20.794Z,53.20
2024-02-14T01:00:51.370Z,55.97
2024-02-14T01:03:21.720Z,56.15
2024-02-14T01:05:53.906Z,57.53
2024-02-14T01:08:24.021Z,66.53
2024-02-14T01:10:54.592Z,67.55
2024-02-14T01:13:24.927Z,90.30
2024-02-14T01:15:55.573Z,81.88
2024-02-14T01:18:26.215Z,84.38
2024-02-14T01:20:59.943Z,90.80
2024-02-14T01:23:30.288Z,92.50
2024-02-14T01:26:00.712Z,92.95
2024-02-14T01:28:31.105Z,87.65
2024-02-14T01:31:01.669Z,80.70
2024-02-14T01:33:32.217Z,88.22
2024-02-14T01:36:04.451Z,89.05
2024-02-14T01:38:36.819Z,84.50
2024-02-14T01:41:08.617Z,63.67
2024-02-14T01:43:39.179Z,62.95
2024-02-14T01:46:10.465Z,57.03
2024-02-14T01:48:53.779Z,60.88
2024-02-14T01:51:26.985Z,57.17
2024-02-14T01:53:58.474Z,73.65
2024-02-14T01:56:29.782Z,68.18
2024-02-14T01:59:01.375Z,68.70
2024-02-14T02:01:32.717Z,77.38
2024-02-14T02:04:03.670Z,68.25
2024-02-14T02:06:35.896Z,63.58
2024-02-14T02:09:06.771Z,74.35
2024-02-14T02:11:49.217Z,81.35
2024-02-14T02:14:41.570Z,66.28
2024-02-14T02:17:32.374Z,58.88
2024-02-14T02:20:22.473Z,58.95
2024-02-14T02:22:54.474Z,54.00
2024-02-14T02:25:44.969Z,56.88
2024-02-14T02:28:35.486Z,52.03
2024-02-14T02:31:06.308Z,52.60
2024-02-14T02:33:38.127Z,54.13
2024-02-14T02:36:09.124Z,43.05
2024-02-14T02:39:01.914Z,63.50
2024-02-14T02:41:52.059Z,63.05
2024-02-14T02:45:00.668Z,71.05
2024-02-14T02:47:52.974Z,60.15
2024-02-14T02:50:45.879Z,62.50
2024-02-14T02:53:34.324Z,65.57
2024-02-14T02:56:28.546Z,74.53
2024-02-14T02:58:58.925Z,65.97
2024-02-14T03:01:32.507Z,66.35
2024-02-14T03:04:24.654Z,56.30
2024-02-14T03:07:18.011Z,64.03
2024-02-14T03:10:09.391Z,64.35
2024-02-14T03:13:01.310Z,75.75
2024-02-14T03:15:51.632Z,62.50
2024-02-14T03:18:22.296Z,70.32
2024-02-14T03:20:55.116Z,62.28
2024-02-14T03:23:25.702Z,66.25
2024-02-14T03:25:55.812Z,66.03
2024-02-14T03:28:28.785Z,59.40
2024-02-14T03:30:59.215Z,46.67
2024-02-14T03:33:30.490Z,74.10
2024-02-14T03:36:00.790Z,77.53
2024-02-14T03:38:32.812Z,68.18
2024-02-14T03:41:03.345Z,71.15
2024-02-14T03:43:35.198Z,60.70
2024-02-14T03:46:06.402Z,78.15
2024-02-14T03:48:37.368Z,64.55
2024-02-14T03:51:07.801Z,67.50
2024-02-14T03:53:39.008Z,57.13
2024-02-14T03:56:09.554Z,68.80
2024-02-14T03:58:41.797Z,63.10
2024-02-14T04:01:11.863Z,81.30
2024-02-14T04:03:42.583Z,94.43
2024-02-14T04:06:12.859Z,116.07
2024-02-14T04:08:43.477Z,156.02
2024-02-14T04:11:14.889Z,108.00
2024-02-14T04:13:48.299Z,114.90
2024-02-14T04:16:23.290Z,69.53
2024-02-14T04:18:57.828Z,69.20
2024-02-14T04:21:28.244Z,68.63
2024-02-14T04:23:59.504Z,55.00
2024-02-14T04:26:29.581Z,68.13
2024-02-14T04:29:03.158Z,63.85
2024-02-14T04:31:36.207Z,76.85
2024-02-14T04:34:11.104Z,67.50
2024-02-14T04:36:42.020Z,71.55
2024-02-14T04:39:12.751Z,79.38
2024-02-14T04:41:53.964Z,88.22
2024-02-14T04:44:32.759Z,80.38
2024-02-14T04:47:03.638Z,69.72
2024-02-14T04:49:34.379Z,67.93
2024-02-14T04:52:05.405Z,72.78
2024-02-14T04:54:35.993Z,73.75
2024-02-14T04:57:07.206Z,60.67
2024-02-14T04:59:39.796Z,93.03
2024-02-14T05:02:09.953Z,69.43
2024-02-14T05:04:40.624Z,79.28
2024-02-14T05:07:10.912Z,64.30
2024-02-14T05:09:41.479Z,77.93
2024-02-14T05:12:12.194Z,71.50
2024-02-14T05:14:44.461Z,63.83
2024-02-14T05:17:14.925Z,65.47
2024-02-14T05:19:47.830Z,73.82
2024-02-14T05:22:18.378Z,66.90
2024-02-14T05:24:49.054Z,67.70
2024-02-14T05:27:19.315Z,68.45
2024-02-14T05:29:51.566Z,71.43
2024-02-14T05:32:22.256Z,62.58
2024-02-14T05:34:53.855Z,68.40
2024-02-14T05:37:24.380Z,73.10
2024-02-14T05:39:55.613Z,63.17
2024-02-14T05:42:25.931Z,67.63
2024-02-14T05:44:58.750Z,64.35
2024-02-14T05:47:31.777Z,61.90
2024-02-14T05:50:32.284Z,74.97
2024-02-14T05:53:03.843Z,66.78
2024-02-14T05:55:34.818Z,61.10
2024-02-14T05:58:06.710Z,66.43
2024-02-14T06:00:42.103Z,61.85
2024-02-14T06:03:13.247Z,53.20
2024-02-14T06:05:45.067Z,53.67
2024-02-14T06:08:15.337Z,60.53
2024-02-14T06:10:45.969Z,70.95
2024-02-14T06:13:15.975Z,64.38
2024-02-14T06:15:48.232Z,59.00
2024-02-14T06:18:18.732Z,54.00
2024-02-14T06:20:49.325Z,61.80
2024-02-14T06:23:20.418Z,55.72
2024-02-14T06:25:50.993Z,57.67
2024-02-14T06:28:22.646Z,59.13
2024-02-14T06:30:55.760Z,66.15
2024-02-14T06:33:26.400Z,50.33
2024-02-14T06:35:57.465Z,47.72
2024-02-14T06:38:28.435Z,56.50
2024-02-14T06:40:59.821Z,52.78
2024-02-14T06:43:30.342Z,57.33
2024-02-14T06:46:02.488Z,51.70
2024-02-14T06:48:39.599Z,66.43
2024-02-14T06:51:10.905Z,50.08
2024-02-14T06:53:41.720Z,55.20
2024-02-14T06:56:15.884Z,48.80
2024-02-14T06:58:54.004Z,59.10
2024-02-14T07:01:28.566Z,54.25
2024-02-14T07:04:01.177Z,54.65
2024-02-14T07:06:32.716Z,57.45
2024-02-14T07:09:04.260Z,52.60
2024-02-14T07:11:39.278Z,58.22
2024-02-14T07:14:10.961Z,50.63
2024-02-14T07:16:43.534Z,47.63
2024-02-14T07:19:14.552Z,49.72
2024-02-14T07:21:45.580Z,54.58
2024-02-14T07:24:16.568Z,47.42
2024-02-14T07:26:48.040Z,46.78
2024-02-14T07:29:18.704Z,52.03
2024-02-14T07:31:50.798Z,57.67
2024-02-14T07:34:21.351Z,45.00
2024-02-14T07:36:52.440Z,50.97
2024-02-14T07:39:22.945Z,51.00
2024-02-14T07:41:54.975Z,46.95
2024-02-14T07:44:25.634Z,46.55
2024-02-14T07:47:00.784Z,44.88
2024-02-14T07:49:32.816Z,39.22
2024-02-14T07:52:04.518Z,38.58
2024-02-14T07:54:36.134Z,38.30
2024-02-14T07:57:07.946Z,40.78
2024-02-14T07:59:40.821Z,35.78
2024-02-14T08:02:13.139Z,44.88
2024-02-14T08:04:44.881Z,45.13
2024-02-14T08:07:16.259Z,44.08
2024-02-14T08:09:49.767Z,43.00
2024-02-14T08:12:20.929Z,33.47
2024-02-14T08:14:52.635Z,48.63
2024-02-14T08:17:25.673Z,42.65
2024-02-14T08:19:56.918Z,40.67
2024-02-14T08:22:28.351Z,43.28
2024-02-14T08:24:58.828Z,42.92
2024-02-14T08:27:29.715Z,46.65
2024-02-14T08:30:01.438Z,46.60
2024-02-14T08:32:36.695Z,37.75
2024-02-14T08:35:11.756Z,39.83
2024-02-14T08:37:45.252Z,37.47
2024-02-14T08:40:16.726Z,37.75
2024-02-14T08:42:48.321Z,44.33
2024-02-14T08:45:19.657Z,44.53
2024-02-14T08:47:52.785Z,39.63
2024-02-14T08:50:25.063Z,43.13
2024-02-14T08:52:59.222Z,41.65
2024-02-14T08:55:30.553Z,35.80
2024-02-14T08:58:01.272Z,34.90
2024-02-14T09:00:32.803Z,33.60
2024-02-14T09:03:06.576Z,38.47
2024-02-14T09:05:39.956Z,29.58
2024-02-14T09:08:13.551Z,24.47
2024-02-14T09:10:44.570Z,31.67
2024-02-14T09:13:17.223Z,31.88
2024-02-14T09:15:49.491Z,27.80
2024-02-14T09:18:27.652Z,31.20
2024-02-14T09:21:00.076Z,29.83
2024-02-14T09:23:33.961Z,29.77
2024-02-14T09:26:05.725Z,32.05
2024-02-14T09:28:37.700Z,26.85
2024-02-14T09:31:12.016Z,32.50
2024-02-14T09:33:46.213Z,25.95
2024-02-14T09:36:18.791Z,28.25
2024-02-14T09:38:50.295Z,28.65
2024-02-14T09:41:29.563Z,25.73
2024-02-14T09:44:03.774Z,22.52
2024-02-14T09:46:40.381Z,22.88
2024-02-14T09:49:15.087Z,21.92
2024-02-14T09:51:47.767Z,19.30
2024-02-14T09:54:20.727Z,20.00
2024-02-14T09:56:58.723Z,21.73
2024-02-14T09:59:30.292Z,19.75
2024-02-14T10:02:00.755Z,18.08
2024-02-14T10:04:32.988Z,23.10
2024-02-14T10:07:04.191Z,16.60
2024-02-14T10:09:43.858Z,17.13
2024-02-14T10:12:14.321Z,18.92
2024-02-14T10:14:45.094Z,12.40
2024-02-14T10:17:20.950Z,16.40
2024-02-14T10:20:06.794Z,15.35
2024-02-14T10:22:37.887Z,12.68
2024-02-14T10:25:10.157Z,14.88
2024-02-14T10:27:42.052Z,14.27
2024-02-14T10:30:14.116Z,24.33
2024-02-14T10:32:49.187Z,14.25
2024-02-14T10:35:23.683Z,16.70
2024-02-14T10:37:54.442Z,10.93
2024-02-14T10:40:25.603Z,12.07
2024-02-14T10:42:56.523Z,12.35
2024-02-14T10:45:27.710Z,11.77
2024-02-14T10:48:00.701Z,16.30
2024-02-14T10:50:37.309Z,13.88
2024-02-14T10:53:09.016Z,11.52
2024-02-14T10:55:41.326Z,12.00
2024-02-14T10:58:15.681Z,10.70
2024-02-14T11:00:47.576Z,10.52
2024-02-14T11:03:19.384Z,10.23
2024-02-14T11:05:52.242Z,11.48
2024-02-14T11:08:24.274Z,11.05
2024-02-14T11:10:57.642Z,8.75
2024-02-14T11:13:29.934Z,12.43
2024-02-14T11:16:02.693Z,9.30
2024-02-14T11:18:35.025Z,9.40
2024-02-14T11:21:18.776Z,13.55
2024-02-14T11:23:56.414Z,9.77
2024-02-14T11:26:29.341Z,10.95
2024-02-14T11:29:06.984Z,10.50
2024-02-14T11:31:39.316Z,8.70
2024-02-14T11:34:10.089Z,9.05
2024-02-14T11:36:44.540Z,8.55
2024-02-14T11:39:15.154Z,8.77
2024-02-14T11:41:46.101Z,7.72
2024-02-14T11:44:17.851Z,7.93
2024-02-14T11:46:48.409Z,6.93
2024-02-14T11:49:20.030Z,8.82
2024-02-14T11:51:52.452Z,8.68
2024-02-14T11:54:23.686Z,8.65
2024-02-14T11:56:54.395Z,6.15
2024-02-14T11:59:24.830Z,5.47
2024-02-14T12:01:59.246Z,5.28
2024-02-14T12:04:29.925Z,7.75
2024-02-14T12:07:02.148Z,6.88
2024-02-14T12:09:33.036Z,6.90
2024-02-14T12:12:03.704Z,8.77
2024-02-14T12:14:36.161Z,6.10
2024-02-14T12:17:09.172Z,7.22
2024-02-14T12:19:39.801Z,8.33
2024-02-14T12:22:19.036Z,6.43
2024-02-14T12:24:49.834Z,9.23
2024-02-14T12:27:21.435Z,6.63
2024-02-14T12:29:53.534Z,8.25
2024-02-14T12:32:24.279Z,6.83
2024-02-14T12:34:54.448Z,6.55
2024-02-14T12:37:26.375Z,7.63
2024-02-14T12:39:57.811Z,8.30
2024-02-14T12:42:28.901Z,5.63
2024-02-14T12:44:59.069Z,7.90
2024-02-14T12:47:33.324Z,6.10
2024-02-14T12:50:03.885Z,4.03
2024-02-14T12:52:36.650Z,4.63
2024-02-14T12:55:07.480Z,6.13
2024-02-14T12:57:38.162Z,7.38
2024-02-14T13:00:10.888Z,4.93
2024-02-14T13:02:41.597Z,7.03
2024-02-14T13:05:11.961Z,4.72
2024-02-14T13:07:44.559Z,4.82
2024-02-14T13:10:14.946Z,7.05
2024-02-14T13:12:46.800Z,4.13
2024-02-14T13:15:18.020Z,3.20
2024-02-14T13:17:49.223Z,5.10
2024-02-14T13:20:19.993Z,5.70
2024-02-14T13:22:53.140Z,6.07
2024-02-14T13:25:23.912Z,9.15
2024-02-14T13:27:55.673Z,5.93
2024-02-14T13:30:28.422Z,8.13
2024-02-14T13:32:59.181Z,5.60
2024-02-14T13:35:32.748Z,4.05
2024-02-14T13:38:05.258Z,6.93
2024-02-14T13:40:35.940Z,7.03
2024-02-14T13:43:07.671Z,10.52
2024-02-14T13:45:45.648Z,6.13
2024-02-14T13:48:19.438Z,4.38
2024-02-14T13:50:50.829Z,5.30
2024-02-14T13:53:24.180Z,5.88
2024-02-14T13:55:54.762Z,12.15
2024-02-14T13:58:25.377Z,7.22
2024-02-14T14:00:56.647Z,3.45
2024-02-14T14:03:27.804Z,5.53
2024-02-14T14:05:58.621Z,6.97
2024-02-14T14:08:31.030Z,7.57
2024-02-14T14:11:01.645Z,2.20
2024-02-14T14:13:34.795Z,3.80
2024-02-14T14:16:06.315Z,4.72
2024-02-14T14:18:37.942Z,6.18
2024-02-14T14:21:08.420Z,3.75
2024-02-14T14:23:40.478Z,3.65
2024-02-14T14:26:10.854Z,6.13
2024-02-14T14:28:41.574Z,4.45
2024-02-14T14:31:13.105Z,3.85
2024-02-14T14:33:44.508Z,3.85
2024-02-14T14:36:15.164Z,4.45
2024-02-14T14:38:48.311Z,5.53
2024-02-14T14:41:20.158Z,5.05
2024-02-14T14:43:52.938Z,5.60
2024-02-14T14:46:24.628Z,2.97
2024-02-14T14:48:56.591Z,10.20
2024-02-14T14:51:28.229Z,5.60
2024-02-14T14:54:01.468Z,6.80
2024-02-14T14:56:32.816Z,4.22
2024-02-14T14:59:07.321Z,7.07
2024-02-14T15:01:38.087Z,3.83
2024-02-14T15:04:08.684Z,8.02
2024-02-14T15:06:42.988Z,4.85
2024-02-14T15:09:15.591Z,7.13
2024-02-14T15:11:46.501Z,7.10
2024-02-14T15:14:17.749Z,7.90
2024-02-14T15:16:48.485Z,12.57
2024-02-14T15:19:20.393Z,12.00
2024-02-14T15:21:53.321Z,13.32
2024-02-14T15:24:25.350Z,12.77
2024-02-14T15:27:02.104Z,11.60
2024-02-14T15:29:51.368Z,8.57
2024-02-14T15:32:39.521Z,9.60
2024-02-14T15:35:11.000Z,10.45
2024-02-14T15:37:43.897Z,8.40
2024-02-14T15:40:18.230Z,10.63
2024-02-14T15:42:51.016Z,12.55
2024-02-14T15:45:22.804Z,4.90
2024-02-14T15:47:54.984Z,10.98
2024-02-14T15:50:26.481Z,5.93
2024-02-14T15:52:57.104Z,7.00
2024-02-14T15:55:30.042Z,9.10
2024-02-14T15:58:02.913Z,8.80
2024-02-14T16:00:34.312Z,7.60
2024-02-14T16:03:06.204Z,11.55
2024-02-14T16:05:37.954Z,6.38
2024-02-14T16:08:16.994Z,8.85
2024-02-14T16:10:51.872Z,4.50
2024-02-14T16:13:24.390Z,5.97
2024-02-14T16:18:29.110Z,5.97
2024-02-14T16:21:00.320Z,5.25
2024-02-14T16:23:31.680Z,8.02
2024-02-14T16:26:05.798Z,4.18
2024-02-14T16:28:37.779Z,6.90
2024-02-14T16:31:10.395Z,6.32
2024-02-14T16:33:41.685Z,4.78
2024-02-14T16:36:15.102Z,11.77
2024-02-14T16:38:45.747Z,6.88
2024-02-14T16:41:20.717Z,9.77
2024-02-14T16:43:51.014Z,9.27
2024-02-14T16:46:22.765Z,10.43
2024-02-14T16:48:57.353Z,9.63
2024-02-14T16:51:32.294Z,7.25
2024-02-14T16:54:04.324Z,4.68
2024-02-14T16:56:37.100Z,7.60
2024-02-14T16:59:08.615Z,3.83
2024-02-14T17:01:42.784Z,4.78
2024-02-14T17:04:13.814Z,3.70
2024-02-14T17:06:45.523Z,5.68
2024-02-14T17:09:17.170Z,7.22
2024-02-14T17:11:49.611Z,11.43
2024-02-14T17:14:21.916Z,6.13
2024-02-14T17:16:56.843Z,9.13
2024-02-14T17:19:27.837Z,5.28
2024-02-14T17:21:58.817Z,5.22
2024-02-14T17:24:29.459Z,8.23
2024-02-14T17:27:04.530Z,9.88
2024-02-14T17:29:35.947Z,13.73
2024-02-14T17:32:12.577Z,7.90
2024-02-14T17:34:48.389Z,10.48
2024-02-14T17:37:30.026Z,9.20
2024-02-14T17:40:02.602Z,13.35
2024-02-14T17:42:38.168Z,13.52
2024-02-14T17:45:11.032Z,12.07
2024-02-14T17:47:43.525Z,11.20
2024-02-14T17:50:13.941Z,15.63
2024-02-14T17:52:46.542Z,12.93
2024-02-14T17:55:19.745Z,10.75
2024-02-14T17:57:57.106Z,9.40
2024-02-14T18:00:28.228Z,13.63
2024-02-14T18:03:00.047Z,10.18
2024-02-14T18:05:31.687Z,7.38
2024-02-14T18:08:03.028Z,14.32
2024-02-14T18:10:34.012Z,12.07
2024-02-14T18:13:06.698Z,16.50
2024-02-14T18:15:38.290Z,10.20
2024-02-14T18:18:10.801Z,6.95
2024-02-14T18:20:43.389Z,15.07
2024-02-14T18:23:17.177Z,14.40
2024-02-14T18:25:48.307Z,13.02
2024-02-14T18:28:21.766Z,12.87
2024-02-14T18:30:59.427Z,9.48
2024-02-14T18:33:30.760Z,14.18
2024-02-14T18:36:05.787Z,9.45
2024-02-14T18:38:38.337Z,12.90
2024-02-14T18:41:09.819Z,16.58
2024-02-14T18:43:42.686Z,10.38
2024-02-14T18:46:13.202Z,13.73
2024-02-14T18:48:45.978Z,15.63
2024-02-14T18:51:17.799Z,19.10
2024-02-14T18:53:48.983Z,14.63
2024-02-14T18:56:24.825Z,17.15
2024-02-14T18:58:57.045Z,14.55
2024-02-14T19:01:29.554Z,18.83
2024-02-14T19:04:04.968Z,18.95
2024-02-14T19:06:36.173Z,16.15
2024-02-14T19:09:13.269Z,17.85
2024-02-14T19:11:43.758Z,15.23
2024-02-14T19:14:15.929Z,19.88
2024-02-14T19:16:48.166Z,18.08
2024-02-14T19:19:21.240Z,16.50
2024-02-14T19:21:51.900Z,19.98
2024-02-14T19:24:22.693Z,16.95
2024-02-14T19:26:53.819Z,17.95
2024-02-14T19:29:26.746Z,15.05
2024-02-14T19:31:59.804Z,20.13
2024-02-14T19:34:32.110Z,22.88
2024-02-14T19:37:03.074Z,22.65
2024-02-14T19:39:35.654Z,28.33
2024-02-14T19:42:07.720Z,32.45
2024-02-14T19:44:41.754Z,32.20
2024-02-14T19:47:13.296Z,31.35
2024-02-14T19:49:46.905Z,30.63
2024-02-14T19:52:18.668Z,24.95
2024-02-14T19:54:50.315Z,24.55
2024-02-14T19:57:21.473Z,23.40
2024-02-14T19:59:57.307Z,25.02
2024-02-14T20:02:29.786Z,30.73
2024-02-14T20:05:01.572Z,28.77
2024-02-14T20:07:36.473Z,22.60
2024-02-14T20:10:11.224Z,29.63
2024-02-14T20:12:42.358Z,32.92
2024-02-14T20:15:15.717Z,24.73
2024-02-14T20:17:47.186Z,25.75
2024-02-14T20:20:24.016Z,30.48
2024-02-14T20:22:55.112Z,30.85
2024-02-14T20:25:26.448Z,32.20
2024-02-14T20:27:57.089Z,31.80
2024-02-14T20:30:31.155Z,27.55
2024-02-14T20:33:03.687Z,27.80
2024-02-14T20:35:37.049Z,34.55
2024-02-14T20:38:10.940Z,28.55
2024-02-14T20:40:45.446Z,30.70
2024-02-14T20:43:15.975Z,30.92
2024-02-14T20:45:48.601Z,34.00
2024-02-14T20:48:19.270Z,28.20
2024-02-14T20:50:50.106Z,32.05
2024-02-14T20:53:20.325Z,26.45
2024-02-14T20:55:52.342Z,37.10
2024-02-14T20:58:23.719Z,40.08
2024-02-14T21:00:55.947Z,37.72
2024-02-14T21:03:26.573Z,38.08
2024-02-14T21:05:58.067Z,35.78
2024-02-14T21:08:29.095Z,29.08
2024-02-14T21:11:03.330Z,30.08
2024-02-14T21:13:34.878Z,31.25
2024-02-14T21:16:07.785Z,32.67
2024-02-14T21:18:39.990Z,31.90
2024-02-14T21:21:12.683Z,23.73
2024-02-14T21:23:43.686Z,27.98
2024-02-14T21:26:15.330Z,27.85
2024-02-14T21:28:55.409Z,29.63
2024-02-14T21:31:30.241Z,26.52
2024-02-14T21:34:00.938Z,30.83
2024-02-14T21:36:33.738Z,28.52
2024-02-14T21:39:07.528Z,27.17
2024-02-14T21:41:39.064Z,25.10
2024-02-14T21:44:10.561Z,25.23
2024-02-14T21:46:44.616Z,24.02
2024-02-14T21:49:21.670Z,25.75
2024-02-14T21:51:54.190Z,26.08
2024-02-14T21:54:28.184Z,29.00
2024-02-14T21:59:30.592Z,22.80
2024-02-14T22:02:02.981Z,25.17
2024-02-14T22:04:33.881Z,19.42
2024-02-14T22:07:05.266Z,26.13
2024-02-14T22:09:36.216Z,27.30
2024-02-14T22:12:09.072Z,24.23
2024-02-14T22:14:40.212Z,30.80
2024-02-14T22:17:19.673Z,25.17
2024-02-14T22:19:54.705Z,27.33
2024-02-14T22:22:25.934Z,28.45
2024-02-14T22:24:57.340Z,25.50
2024-02-14T22:27:28.531Z,24.08
2024-02-14T22:29:59.861Z,22.58
2024-02-14T22:32:31.875Z,23.98
2024-02-14T22:35:03.378Z,26.63
2024-02-14T22:37:35.318Z,29.80
2024-02-14T22:40:08.602Z,26.80
2024-02-14T22:42:39.894Z,26.88
2024-02-14T22:45:15.616Z,21.42
2024-02-14T22:47:48.265Z,27.48
2024-02-14T22:50:20.113Z,28.25
2024-02-14T22:52:51.015Z,22.02
2024-02-14T22:55:21.445Z,25.35
2024-02-14T22:57:52.562Z,22.00
2024-02-14T23:00:28.245Z,26.30
2024-02-14T23:03:08.129Z,27.58
2024-02-14T23:05:42.062Z,29.52
2024-02-14T23:08:13.266Z,28.50
2024-02-14T23:10:45.142Z,24.35
2024-02-14T23:13:16.612Z,27.77
2024-02-14T23:15:53.453Z,26.02
2024-02-14T23:18:29.113Z,32.80
2024-02-14T23:21:03.150Z,26.90
2024-02-14T23:26:03.693Z,31.60
2024-02-14T23:28:43.411Z,30.00
2024-02-14T23:31:15.375Z,30.23
2024-02-14T23:33:47.851Z,26.52
2024-02-14T23:36:19.064Z,25.05
2024-02-14T23:38:50.067Z,31.73
2024-02-14T23:41:22.005Z,29.85
2024-02-14T23:43:53.944Z,26.02
2024-02-14T23:46:24.183Z,26.13
2024-02-14T23:48:56.126Z,27.73
2024-02-14T23:51:28.685Z,27.42
2024-02-14T23:53:59.956Z,34.13
2024-02-14T23:56:31.263Z,32.67
2024-02-14T23:59:01.848Z,38.60
